createdAt,value
2023-10-19T00:03:34.491Z,99455.28
2023-10-19T00:08:26.408Z,99448.97
2023-10-19T00:13:20.415Z,99433.56
2023-10-19T00:18:21.957Z,99459.31
2023-10-19T00:23:25.632Z,99468.41
2023-10-19T00:28:18.530Z,99460.28
2023-10-19T00:33:21.342Z,99476.25
2023-10-19T00:38:39.212Z,99416.09
2023-10-19T00:43:35.495Z,99402.16
2023-10-19T00:48:28.490Z,99377.00
2023-10-19T00:53:20.346Z,99372.91
2023-10-19T00:58:18.735Z,99396.63
2023-10-19T01:03:18.316Z,99357.56
2023-10-19T01:08:27.734Z,99339.94
2023-10-19T01:13:28.569Z,99322.00
2023-10-19T01:18:21.085Z,99342.84
2023-10-19T01:23:27.618Z,99340.47
2023-10-19T01:28:19.518Z,99329.97
2023-10-19T01:33:16.697Z,99312.47
2023-10-19T01:38:09.541Z,99289.53
2023-10-19T01:43:01.278Z,99279.88
2023-10-19T01:47:53.122Z,99315.84
2023-10-19T01:52:45.799Z,99304.22
2023-10-19T01:57:37.551Z,99297.94
2023-10-19T02:02:30.133Z,99280.84
2023-10-19T02:07:24.496Z,99275.53
2023-10-19T02:12:18.926Z,99272.72
2023-10-19T02:17:11.065Z,99283.34
2023-10-19T02:22:12.969Z,99248.66
2023-10-19T02:27:07.415Z,99246.81
2023-10-19T02:32:05.141Z,99253.28
2023-10-19T02:36:56.820Z,99254.81
2023-10-19T02:41:50.104Z,99231.84
2023-10-19T02:46:43.289Z,99226.53
2023-10-19T02:51:35.084Z,99226.41
2023-10-19T02:56:28.152Z,99216.22
2023-10-19T03:01:23.064Z,99217.56
2023-10-19T03:06:14.980Z,99206.94
2023-10-19T03:11:08.219Z,99206.94
2023-10-19T03:16:08.597Z,99205.97
2023-10-19T03:21:02.607Z,99205.25
2023-10-19T03:26:14.532Z,99190.16
2023-10-19T03:31:06.211Z,99175.03
2023-10-19T03:35:57.963Z,99188.47
2023-10-19T03:40:53.618Z,99178.66
2023-10-19T03:45:53.675Z,99151.78
2023-10-19T03:50:49.083Z,99158.91
2023-10-19T03:55:44.467Z,99148.59
2023-10-19T04:00:36.290Z,99162.59
2023-10-19T04:05:29.566Z,99157.28
2023-10-19T04:10:31.720Z,99152.94
2023-10-19T04:15:23.681Z,99147.63
2023-10-19T04:20:17.771Z,99145.63
2023-10-19T04:25:13.664Z,99148.44
2023-10-19T04:30:06.100Z,99140.63
2023-10-19T04:34:59.979Z,99126.34
2023-10-19T04:39:51.917Z,99121.84
2023-10-19T04:44:43.631Z,99127.16
2023-10-19T04:49:35.395Z,99110.38
2023-10-19T04:54:27.118Z,99105.88
2023-10-19T04:59:18.773Z,99113.88
2023-10-19T05:04:10.567Z,99113.03
2023-10-19T05:09:04.346Z,99108.72
2023-10-19T05:13:56.157Z,99093.91
2023-10-19T05:18:47.830Z,99078.75
2023-10-19T05:23:39.581Z,99066.84
2023-10-19T05:28:32.001Z,99067.97
2023-10-19T05:33:24.904Z,99070.63
2023-10-19T05:38:17.101Z,99081.25
2023-10-19T05:43:08.934Z,99074.97
2023-10-19T05:48:01.367Z,99075.28
2023-10-19T05:52:54.404Z,99067.31
2023-10-19T05:57:48.680Z,99082.13
2023-10-19T06:02:47.643Z,99091.91
2023-10-19T06:07:39.389Z,99091.78
2023-10-19T06:12:35.653Z,99074.13
2023-10-19T06:17:28.296Z,99067.16
2023-10-19T06:22:20.118Z,99068.81
2023-10-19T06:27:11.908Z,99073.28
2023-10-19T06:32:03.796Z,99076.94
2023-10-19T06:36:55.714Z,99086.75
2023-10-19T06:41:48.028Z,99076.25
2023-10-19T06:46:40.700Z,99068.94
2023-10-19T06:51:34.509Z,99060.97
2023-10-19T06:56:27.415Z,99046.84
2023-10-19T07:01:19.999Z,99055.66
2023-10-19T07:06:15.302Z,99062.81
2023-10-19T07:11:07.272Z,99053.84
2023-10-19T07:15:59.956Z,99048.53
2023-10-19T07:20:54.336Z,99043.22
2023-10-19T07:25:49.137Z,99036.22
2023-10-19T07:30:42.804Z,99022.75
2023-10-19T07:35:40.705Z,99042.34
2023-10-19T07:40:33.313Z,99020.72
2023-10-19T07:45:26.698Z,99020.19
2023-10-19T07:50:18.645Z,99031.09
2023-10-19T07:55:11.214Z,99032.41
2023-10-19T08:00:06.160Z,99056.47
2023-10-19T08:04:58.224Z,99050.06
2023-10-19T08:09:49.947Z,99058.75
2023-10-19T08:14:43.579Z,99022.50
2023-10-19T08:19:35.418Z,99028.34
2023-10-19T08:24:30.184Z,99011.19
2023-10-19T08:29:22.668Z,99020.75
2023-10-19T08:34:14.601Z,98981.75
2023-10-19T08:39:07.515Z,98995.19
2023-10-19T08:43:59.391Z,98996.72
2023-10-19T08:48:51.220Z,99014.34
2023-10-19T08:53:45.350Z,98992.09
2023-10-19T08:58:37.166Z,98993.72
2023-10-19T09:03:30.343Z,98992.91
2023-10-19T09:08:23.840Z,98980.06
2023-10-19T09:13:19.831Z,98988.28
2023-10-19T09:18:23.607Z,98989.25
2023-10-19T09:23:15.334Z,98961.81
2023-10-19T09:28:07.805Z,98962.69
2023-10-19T09:33:01.171Z,98947.56
2023-10-19T09:37:55.256Z,98935.94
2023-10-19T09:42:51.480Z,98941.25
2023-10-19T09:47:51.147Z,98953.72
2023-10-19T09:52:43.591Z,98923.63
2023-10-19T09:57:50.258Z,98935.09
2023-10-19T10:02:47.585Z,98935.25
2023-10-19T10:07:42.465Z,98943.38
2023-10-19T10:12:36.232Z,98929.78
2023-10-19T10:17:28.882Z,98902.22
2023-10-19T10:22:22.599Z,98903.03
2023-10-19T10:27:20.878Z,98902.22
2023-10-19T10:32:13.484Z,98895.06
2023-10-19T10:37:09.234Z,98908.38
2023-10-19T10:42:04.231Z,98904.72
2023-10-19T10:46:56.054Z,98902.22
2023-10-19T10:51:47.805Z,98882.63
2023-10-19T10:56:42.801Z,98896.06
2023-10-19T11:01:35.006Z,98883.91
2023-10-19T11:06:26.858Z,98880.78
2023-10-19T11:11:18.537Z,98871.31
2023-10-19T11:16:10.822Z,98880.97
2023-10-19T11:21:13.222Z,98880.09
2023-10-19T11:26:06.425Z,98858.84
2023-10-19T11:31:15.334Z,98853.84
2023-10-19T11:36:07.465Z,98848.88
2023-10-19T11:40:59.210Z,98838.56
2023-10-19T11:45:51.135Z,98822.47
2023-10-19T11:50:43.057Z,98819.81
2023-10-19T11:55:34.768Z,98814.50
2023-10-19T12:00:35.171Z,98804.00
2023-10-19T12:05:27.157Z,98807.34
2023-10-19T12:10:21.649Z,98796.69
2023-10-19T12:15:16.340Z,98799.34
2023-10-19T12:20:08.572Z,98802.03
2023-10-19T12:25:00.589Z,98797.69
2023-10-19T12:29:55.604Z,98825.94
2023-10-19T12:34:47.453Z,98806.50
2023-10-19T12:40:00.154Z,98778.25
2023-10-19T12:44:52.330Z,98770.41
2023-10-19T12:49:46.412Z,98752.34
2023-10-19T12:54:39.191Z,98745.84
2023-10-19T12:59:31.529Z,98768.44
2023-10-19T13:04:25.277Z,98768.44
2023-10-19T13:09:23.182Z,98764.13
2023-10-19T13:14:15.237Z,98758.97
2023-10-19T13:19:17.218Z,98756.31
2023-10-19T13:24:10.195Z,98765.97
2023-10-19T13:29:02.735Z,98744.84
2023-10-19T13:33:55.817Z,98773.25
2023-10-19T13:38:47.539Z,98771.44
2023-10-19T13:43:43.757Z,98741.19
2023-10-19T13:48:36.634Z,98751.81
2023-10-19T13:53:28.815Z,98775.72
2023-10-19T13:58:20.632Z,98770.41
2023-10-19T14:03:15.369Z,98767.75
2023-10-19T14:08:08.148Z,98746.16
2023-10-19T14:13:00.138Z,98749.47
2023-10-19T14:17:52.495Z,98742.50
2023-10-19T14:22:47.160Z,98723.22
2023-10-19T14:27:49.812Z,98710.91
2023-10-19T14:32:43.334Z,98689.94
2023-10-19T14:37:35.161Z,98688.31
2023-10-19T14:42:26.953Z,98676.00
2023-10-19T14:47:18.829Z,98675.66
2023-10-19T14:52:11.166Z,98680.84
2023-10-19T14:57:02.965Z,98662.25
2023-10-19T15:01:56.385Z,98666.56
2023-10-19T15:06:50.333Z,98620.53
2023-10-19T15:11:42.031Z,98634.81
2023-10-19T15:16:33.726Z,98630.34
2023-10-19T15:21:25.435Z,98613.53
2023-10-19T15:26:19.987Z,98633.00
2023-10-19T15:31:12.125Z,98614.41
2023-10-19T15:36:04.068Z,98626.84
2023-10-19T15:40:55.963Z,98608.22
2023-10-19T15:45:50.714Z,98589.63
2023-10-19T15:50:42.787Z,98595.09
2023-10-19T15:55:34.560Z,98620.53
2023-10-19T16:00:26.453Z,98637.16
2023-10-19T16:05:19.185Z,98616.88
2023-10-19T16:10:11.732Z,98611.56
2023-10-19T16:15:03.814Z,98635.31
2023-10-19T16:19:55.813Z,98591.97
2023-10-19T16:24:47.608Z,98606.25
2023-10-19T16:29:40.111Z,98605.25
2023-10-19T16:34:32.113Z,98594.81
2023-10-19T16:39:24.088Z,98589.63
2023-10-19T16:44:17.238Z,98570.72
2023-10-19T16:49:09.584Z,98578.00
2023-10-19T16:54:01.243Z,98580.84
2023-10-19T16:58:53.056Z,98604.25
2023-10-19T17:03:46.003Z,98608.41
2023-10-19T17:08:38.008Z,98585.78
2023-10-19T17:13:30.594Z,98553.38
2023-10-19T17:18:22.463Z,98548.06
2023-10-19T17:23:14.388Z,98552.69
2023-10-19T17:28:07.717Z,98553.53
2023-10-19T17:33:10.211Z,98541.25
2023-10-19T17:38:04.095Z,98488.59
2023-10-19T17:42:55.855Z,98486.59
2023-10-19T17:47:48.290Z,98489.91
2023-10-19T17:52:40.202Z,98473.97
2023-10-19T17:57:36.038Z,98455.91
2023-10-19T18:02:28.341Z,98467.34
2023-10-19T18:07:21.157Z,98458.88
2023-10-19T18:12:13.605Z,98455.06
2023-10-19T18:17:10.516Z,98463.19
2023-10-19T18:22:02.456Z,98479.66
2023-10-19T18:26:54.721Z,98475.50
2023-10-19T18:31:46.578Z,98477.97
2023-10-19T18:36:46.907Z,98483.97
2023-10-19T18:41:42.767Z,98485.78
2023-10-19T18:46:37.203Z,98466.53
2023-10-19T18:51:29.185Z,98463.03
2023-10-19T18:56:20.944Z,98463.88
2023-10-19T19:01:12.909Z,98465.88
2023-10-19T19:06:05.760Z,98467.84
2023-10-19T19:10:58.853Z,98466.34
2023-10-19T19:15:51.961Z,98443.59
2023-10-19T19:20:44.323Z,98439.75
2023-10-19T19:25:36.670Z,98465.84
2023-10-19T19:30:28.731Z,98446.41
2023-10-19T19:35:20.911Z,98456.38
2023-10-19T19:40:15.929Z,98435.41
2023-10-19T19:45:08.128Z,98473.47
2023-10-19T19:49:59.845Z,98485.94
2023-10-19T19:54:54.509Z,98458.69
2023-10-19T19:59:46.882Z,98433.94
2023-10-19T20:04:39.510Z,98436.75
2023-10-19T20:09:32.069Z,98457.50
2023-10-19T20:14:24.218Z,98409.03
2023-10-19T20:19:17.383Z,98412.34
2023-10-19T20:24:09.248Z,98423.31
2023-10-19T20:29:02.171Z,98421.00
2023-10-19T20:33:53.941Z,98409.69
2023-10-19T20:38:45.849Z,98428.16
2023-10-19T20:43:43.833Z,98399.72
2023-10-19T20:48:35.926Z,98428.78
2023-10-19T20:53:27.715Z,98435.78
2023-10-19T20:58:23.868Z,98421.00
2023-10-19T21:03:16.526Z,98419.00
2023-10-19T21:08:08.354Z,98407.38
2023-10-19T21:13:01.498Z,98399.56
2023-10-19T21:17:53.339Z,98391.94
2023-10-19T21:22:47.401Z,98391.75
2023-10-19T21:27:40.770Z,98394.91
2023-10-19T21:32:34.433Z,98360.56
2023-10-19T21:37:27.346Z,98383.63
2023-10-19T21:42:19.297Z,98360.56
2023-10-19T21:47:12.644Z,98364.69
2023-10-19T21:52:04.865Z,98352.41
2023-10-19T21:56:56.715Z,98362.88
2023-10-19T22:01:48.410Z,98348.06
2023-10-19T22:06:40.222Z,98320.50
2023-10-19T22:11:35.219Z,98322.03
2023-10-19T22:16:27.063Z,98309.75
2023-10-19T22:21:18.858Z,98283.97
2023-10-19T22:26:12.533Z,98310.56
2023-10-19T22:31:04.823Z,98299.94
2023-10-19T22:35:56.508Z,98285.16
2023-10-19T22:40:48.686Z,98305.25
2023-10-19T22:45:40.464Z,98281.50
2023-10-19T22:50:34.451Z,98259.56
2023-10-19T22:55:26.313Z,98261.72
2023-10-19T23:00:18.538Z,98260.06
2023-10-19T23:05:12.285Z,98252.28
2023-10-19T23:10:07.056Z,98252.78
2023-10-19T23:15:00.998Z,98247.44
2023-10-19T23:19:57.956Z,98249.13
2023-10-19T23:24:52.570Z,98227.84
2023-10-19T23:29:46.600Z,98204.25
2023-10-19T23:34:38.259Z,98224.72
2023-10-19T23:39:34.387Z,98230.84
2023-10-19T23:44:30.888Z,98201.78
2023-10-19T23:49:22.872Z,98212.06
2023-10-19T23:54:14.711Z,98201.78
2023-10-19T23:59:07.806Z,98216.56
